Time;durP1;ratioP1;P1;durP2;ratioP2;P2;SDS_P1;SDS_P2;PMS_P1;PMS_P2;Temp;Humidity;BMP_temperature;BMP_pressure;BME280_temperature;BME280_humidity;BME280_pressure;Samples;Min_cycle;Max_cycle;Signal;HPM_P1;HPM_P2
2022/10/27 00:02:18;;;;;;;9.63;4.10;;;;;;;14.25;100.00;101997.59;5018928;28;20148;-87
2022/10/27 00:04:43;;;;;;;9.30;4.50;;;;;;;14.24;100.00;102001.34;5018670;28;20041;-88
2022/10/27 00:07:09;;;;;;;11.67;4.67;;;;;;;14.19;100.00;102006.59;5017946;28;20532;-89
2022/10/27 00:09:34;;;;;;;9.27;4.50;;;;;;;14.13;100.00;102004.69;5000750;28;20165;-87
2022/10/27 00:11:59;;;;;;;11.27;4.60;;;;;;;14.12;100.00;102000.28;5018341;28;20655;-88
2022/10/27 00:14:25;;;;;;;13.13;4.77;;;;;;;14.05;100.00;101999.44;5020694;28;20372;-87
2022/10/27 00:16:55;;;;;;;10.37;5.23;;;;;;;13.98;100.00;102005.72;5022165;28;20543;-88
2022/10/27 00:19:22;;;;;;;10.00;4.40;;;;;;;13.93;100.00;102010.94;5021791;28;20040;-89
2022/10/27 00:21:49;;;;;;;10.70;5.10;;;;;;;13.85;100.00;101998.34;5022110;28;21772;-87
2022/10/27 00:24:15;;;;;;;10.83;4.80;;;;;;;13.83;100.00;101999.59;5022397;28;20025;-88
2022/10/27 00:26:40;;;;;;;8.53;4.90;;;;;;;13.77;100.00;101994.97;5021649;28;20493;-90
2022/10/27 00:29:05;;;;;;;8.27;5.20;;;;;;;13.75;100.00;101999.75;5037337;28;20049;-88
2022/10/27 00:31:31;;;;;;;10.23;5.00;;;;;;;13.68;100.00;102006.06;5021811;28;20523;-88
2022/10/27 00:33:56;;;;;;;8.40;5.23;;;;;;;13.66;100.00;102010.84;5022325;28;20557;-89
2022/10/27 00:36:23;;;;;;;13.10;5.73;;;;;;;13.57;100.00;102008.50;5021442;28;20404;-86
2022/10/27 00:38:53;;;;;;;8.87;5.37;;;;;;;13.57;100.00;102017.53;5021680;28;20037;-88
2022/10/27 00:41:23;;;;;;;10.23;5.30;;;;;;;13.51;100.00;102019.16;5020808;28;20458;-86
2022/10/27 00:43:48;;;;;;;12.37;5.50;;;;;;;13.46;100.00;102013.50;5022110;28;20068;-87
2022/10/27 00:46:29;;;;;;;12.57;5.43;;;;;;;13.44;100.00;102014.75;5021407;28;20052;-89
2022/10/27 00:48:59;;;;;;;9.67;5.70;;;;;;;13.37;100.00;102017.44;5021119;28;20649;-87
2022/10/27 00:51:25;;;;;;;9.70;5.13;;;;;;;13.39;100.00;102019.97;5022853;28;20444;-86
2022/10/27 00:53:51;;;;;;;11.73;5.90;;;;;;;13.31;100.00;102010.03;5004474;28;20040;-88
2022/10/27 00:56:18;;;;;;;13.43;5.67;;;;;;;13.33;100.00;102016.13;5021600;28;20494;-86
2022/10/27 00:58:45;;;;;;;12.07;5.83;;;;;;;13.29;100.00;102020.31;5022192;28;20045;-86
2022/10/27 01:01:11;;;;;;;11.23;6.17;;;;;;;13.29;100.00;102031.19;5021593;28;20313;-86
2022/10/27 01:03:37;;;;;;;10.87;5.33;;;;;;;13.28;100.00;102030.31;5003308;28;20174;-87
2022/10/27 01:06:03;;;;;;;12.73;5.90;;;;;;;13.25;100.00;102024.47;5021718;28;20722;-89
2022/10/27 01:08:29;;;;;;;12.50;5.27;;;;;;;13.29;100.00;102020.31;5021317;28;20041;-88
2022/10/27 01:10:54;;;;;;;12.53;5.63;;;;;;;13.27;100.00;102023.22;5036344;28;20038;-86
2022/10/27 01:13:20;;;;;;;10.03;5.20;;;;;;;13.27;100.00;102023.22;5021576;28;20037;-87
2022/10/27 01:15:45;;;;;;;7.60;5.27;;;;;;;13.28;100.00;102024.06;5021812;28;20116;-87
2022/10/27 01:18:10;;;;;;;10.90;5.60;;;;;;;13.26;100.00;102026.97;5035538;28;20619;-87
2022/10/27 01:21:00;;;;;;;10.77;5.47;;;;;;;13.25;100.00;102030.75;5020692;28;20029;-87
2022/10/27 01:23:34;;;;;;;10.77;5.50;;;;;;;13.18;100.00;102019.81;5020150;28;20490;-87
2022/10/27 01:26:00;;;;;;;9.73;5.50;;;;;;;13.22;100.00;102028.44;5020263;28;20458;-88
2022/10/27 01:28:47;;;;;;;9.73;5.47;;;;;;;13.22;100.00;102036.59;5021397;28;20128;-88
2022/10/27 01:31:26;;;;;;;9.87;5.57;;;;;;;13.24;100.00;102039.09;5020254;28;20069;-87
2022/10/27 01:34:00;;;;;;;12.70;5.63;;;;;;;13.25;100.00;102036.19;5020817;28;20029;-89
2022/10/27 01:36:40;;;;;;;11.40;5.77;;;;;;;13.25;100.00;102030.75;5021154;28;20473;-85
2022/10/27 01:39:15;;;;;;;10.70;5.63;;;;;;;13.25;100.00;102038.91;5020027;28;20401;-88
2022/10/27 01:41:49;;;;;;;11.17;5.50;;;;;;;13.23;100.00;102034.69;5020225;28;20037;-87
2022/10/27 01:44:30;;;;;;;13.40;6.22;;;;;;;13.21;100.00;102029.47;5020756;28;20100;-87
2022/10/27 01:46:57;;;;;;;11.43;5.77;;;;;;;13.24;100.00;102039.94;5035836;28;20552;-87
2022/10/27 01:49:22;;;;;;;10.40;5.70;;;;;;;13.25;100.00;102041.63;5020515;28;20291;-88
2022/10/27 01:51:50;;;;;;;14.07;6.17;;;;;;;13.29;100.00;102034.75;5020639;28;20301;-86
2022/10/27 01:54:18;;;;;;;11.27;5.60;;;;;;;13.28;100.00;102027.59;5020766;28;20069;-87
2022/10/27 01:57:01;;;;;;;10.03;6.10;;;;;;;13.31;100.00;102039.97;5021638;28;20037;-87
2022/10/27 01:59:42;;;;;;;10.70;5.77;;;;;;;13.32;100.00;102031.59;5013160;28;20048;-89
2022/10/27 02:02:42;;;;;;;11.97;5.70;;;;;;;13.34;100.00;102039.56;5020412;28;20040;-86
2022/10/27 02:05:26;;;;;;;12.37;6.10;;;;;;;13.36;100.00;102031.25;5019656;28;20044;-88
2022/10/27 02:08:20;;;;;;;9.55;5.65;;;;;;;13.40;100.00;102036.09;5018028;28;20182;-87
2022/10/27 02:10:56;;;;;;;12.35;5.65;;;;;;;13.40;100.00;102021.66;5012053;28;20065;-87
2022/10/27 02:13:22;;;;;;;13.57;5.90;;;;;;;13.42;100.00;102025.00;5033601;28;20060;-86
2022/10/27 02:16:22;;;;;;;9.70;5.30;;;;;;;13.43;100.00;102022.06;5017557;28;20041;-86
2022/10/27 02:18:55;;;;;;;10.53;5.73;;;;;;;13.41;100.00;102024.16;5007313;28;20083;-87
2022/10/27 02:21:23;;;;;;;13.77;5.87;;;;;;;13.43;100.00;102026.69;5019664;28;20039;-87
2022/10/27 02:23:50;;;;;;;12.23;5.50;;;;;;;13.37;100.00;102012.00;5001540;28;20563;-87
2022/10/27 02:26:25;;;;;;;10.47;5.20;;;;;;;13.40;100.00;102014.31;5019840;28;20038;-88
2022/10/27 02:28:59;;;;;;;13.10;5.87;;;;;;;13.41;100.00;102012.41;4995843;28;20112;-87
2022/10/27 02:31:29;;;;;;;11.57;5.57;;;;;;;13.41;100.00;102017.84;5019779;28;20030;-87
2022/10/27 02:33:56;;;;;;;9.90;5.50;;;;;;;13.39;100.00;102007.19;5033305;28;20045;-87
2022/10/27 02:36:22;;;;;;;10.37;5.37;;;;;;;13.42;100.00;102004.06;5032292;28;20505;-87
2022/10/27 02:38:47;;;;;;;11.67;5.20;;;;;;;13.44;100.00;102015.59;5019662;28;20254;-87
2022/10/27 02:41:12;;;;;;;9.73;4.90;;;;;;;13.43;100.00;102011.16;5019642;28;20041;-86
2022/10/27 02:43:38;;;;;;;10.97;5.23;;;;;;;13.41;100.00;102007.81;5001226;28;20037;-88
2022/10/27 02:46:03;;;;;;;11.20;5.50;;;;;;;13.44;100.00;102010.13;5019202;28;20044;-87
2022/10/27 02:48:29;;;;;;;10.57;5.00;;;;;;;13.44;100.00;102004.69;5018854;28;20041;-86
2022/10/27 02:50:54;;;;;;;11.30;4.83;;;;;;;13.41;100.00;102004.25;5018738;28;20573;-88
2022/10/27 02:53:19;;;;;;;12.33;4.97;;;;;;;13.43;100.00;102002.19;5034392;28;20051;-87
2022/10/27 02:55:45;;;;;;;10.57;5.20;;;;;;;13.43;100.00;101999.44;5019961;28;20092;-87
2022/10/27 02:58:10;;;;;;;9.63;5.03;;;;;;;13.43;100.00;102002.19;5034827;28;20103;-87
2022/10/27 03:00:35;;;;;;;10.83;5.10;;;;;;;13.42;100.00;101998.63;5018895;28;20475;-87
2022/10/27 03:03:01;;;;;;;11.77;5.13;;;;;;;13.44;100.00;101995.69;5020311;28;20045;-87
2022/10/27 03:05:27;;;;;;;9.67;4.63;;;;;;;13.40;100.00;101988.97;5018491;28;20033;-88
2022/10/27 03:07:52;;;;;;;10.40;4.87;;;;;;;13.40;100.00;101991.69;5018457;28;20066;-88
2022/10/27 03:10:18;;;;;;;8.80;4.60;;;;;;;13.39;100.00;101992.72;5017618;28;20603;-87
2022/10/27 03:12:46;;;;;;;12.60;4.87;;;;;;;13.38;100.00;101991.03;5019438;28;20496;-88
2022/10/27 03:15:11;;;;;;;10.37;4.87;;;;;;;13.37;100.00;101990.22;5019159;28;20041;-88
2022/10/27 03:17:45;;;;;;;7.97;4.90;;;;;;;13.35;100.00;101986.81;5019284;28;20064;-87
2022/10/27 03:20:11;;;;;;;;;;;;;;;13.43;100.00;101988.56;5019839;28;20091;-88
2022/10/27 03:22:38;;;;;;;10.43;4.57;;;;;;;13.37;100.00;101983.91;5019990;28;19921;-88
2022/10/27 03:25:03;;;;;;;7.47;4.17;;;;;;;13.30;100.00;101976.53;5018297;28;20033;-86
2022/10/27 03:27:28;;;;;;;9.23;4.27;;;;;;;13.33;100.00;101972.59;5032626;28;20674;-88
2022/10/27 03:29:54;;;;;;;10.63;5.00;;;;;;;13.31;100.00;101975.50;5017445;28;20400;-88
2022/10/27 03:32:19;;;;;;;9.67;4.47;;;;;;;13.33;100.00;101973.41;5018742;28;20156;-89
2022/10/27 03:34:44;;;;;;;10.00;4.30;;;;;;;13.37;100.00;101975.75;5019681;28;20036;-88
2022/10/27 03:37:10;;;;;;;10.03;4.47;;;;;;;13.33;100.00;101973.41;5019270;28;20051;-87
2022/10/27 03:39:54;;;;;;;8.73;4.33;;;;;;;13.36;100.00;101974.09;5017635;28;20455;-87
2022/10/27 03:42:19;;;;;;;9.02;4.88;;;;;;;13.32;100.00;101971.72;5018718;28;20392;-89
2022/10/27 03:44:45;;;;;;;10.03;4.80;;;;;;;13.29;100.00;101969.41;5033683;28;20171;-87
2022/10/27 03:47:10;;;;;;;8.53;4.73;;;;;;;13.32;100.00;101971.72;5034044;28;20033;-89
2022/10/27 03:49:35;;;;;;;11.13;5.20;;;;;;;13.30;100.00;101972.97;5022754;28;20048;-90
2022/10/27 03:52:01;;;;;;;9.60;5.07;;;;;;;13.29;100.00;101966.69;5023131;28;21836;-86
2022/10/27 03:54:30;;;;;;;12.87;5.63;;;;;;;13.27;100.00;101962.50;5022307;28;20207;-87
2022/10/27 03:56:56;;;;;;;11.17;5.60;;;;;;;13.22;100.00;101959.53;5021872;28;20398;-88
2022/10/27 03:59:21;;;;;;;11.17;5.23;;;;;;;13.11;100.00;101944.63;5022505;28;20068;-87
2022/10/27 04:02:08;;;;;;;14.57;5.80;;;;;;;13.20;100.00;101962.47;5023717;28;20515;-87
2022/10/27 04:04:49;;;;;;;11.23;5.97;;;;;;;13.16;100.00;101955.75;5022128;28;20414;-88
2022/10/27 04:07:14;;;;;;;13.33;6.07;;;;;;;13.13;100.00;101959.69;5021959;28;20651;-90
2022/10/27 04:09:40;;;;;;;12.13;6.43;;;;;;;13.10;100.00;101967.44;5022414;28;20125;-89
2022/10/27 04:12:05;;;;;;;13.07;6.40;;;;;;;13.06;100.00;101960.72;5022533;28;20042;-87
2022/10/27 04:14:31;;;;;;;11.57;6.83;;;;;;;13.01;100.00;101964.03;5021734;28;20043;-88
2022/10/27 04:16:56;;;;;;;15.43;7.57;;;;;;;13.02;100.00;101968.44;5022457;28;20145;-89
2022/10/27 04:19:21;;;;;;;12.23;7.80;;;;;;;13.00;100.00;101971.38;5022466;28;20041;-88
2022/10/27 04:21:47;;;;;;;16.13;8.20;;;;;;;12.95;100.00;101976.56;5022792;28;20137;-88
2022/10/27 04:24:12;;;;;;;15.10;8.40;;;;;;;12.92;100.00;101974.25;5022482;28;20044;-87
2022/10/27 04:26:38;;;;;;;14.00;7.80;;;;;;;12.89;100.00;101979.25;5022296;28;20060;-89
2022/10/27 04:29:04;;;;;;;13.33;7.10;;;;;;;12.90;100.00;101983.66;5020695;28;20034;-88
2022/10/27 04:31:29;;;;;;;15.73;8.10;;;;;;;12.89;100.00;101977.38;5022403;28;20036;-87
2022/10/27 04:33:55;;;;;;;11.63;7.10;;;;;;;12.85;100.00;101992.38;5022156;28;20025;-87
2022/10/27 04:36:20;;;;;;;13.47;7.23;;;;;;;12.82;100.00;101987.34;5003670;28;20651;-87
2022/10/27 04:38:49;;;;;;;14.37;7.37;;;;;;;12.81;100.00;101996.53;5022548;28;20424;-86
2022/10/27 04:41:14;;;;;;;12.53;6.93;;;;;;;12.78;100.00;101989.66;5021801;28;20049;-86
2022/10/27 04:43:40;;;;;;;13.37;7.27;;;;;;;12.78;100.00;101986.06;5037660;28;20038;-87
2022/10/27 04:46:05;;;;;;;14.37;7.40;;;;;;;12.72;100.00;101986.88;5037550;28;20482;-87
2022/10/27 04:48:30;;;;;;;15.17;7.37;;;;;;;12.71;100.00;101993.34;5036206;28;20465;-88
2022/10/27 04:50:56;;;;;;;14.17;7.37;;;;;;;12.63;100.00;101987.03;5022092;28;20600;-87
2022/10/27 04:53:21;;;;;;;11.87;7.20;;;;;;;12.64;100.00;101993.28;5021386;28;20038;-88
2022/10/27 04:55:51;;;;;;;13.63;7.30;;;;;;;12.59;100.00;101987.59;5022262;28;20504;-87
2022/10/27 04:58:16;;;;;;;12.73;7.30;;;;;;;12.55;100.00;101995.34;5019288;28;20048;-87
2022/10/27 05:00:42;;;;;;;12.90;7.10;;;;;;;12.52;100.00;101987.56;5020873;28;20033;-87
2022/10/27 05:03:08;;;;;;;12.07;6.97;;;;;;;12.51;100.00;101996.72;5020607;28;20440;-87
2022/10/27 05:05:33;;;;;;;12.70;6.53;;;;;;;12.53;100.00;101994.69;5021408;28;20520;-86
2022/10/27 05:08:01;;;;;;;10.17;6.40;;;;;;;12.52;100.00;102003.03;5021294;28;20175;-86
2022/10/27 05:10:27;;;;;;;14.27;6.80;;;;;;;12.52;100.00;101997.59;5036515;28;20470;-86
2022/10/27 05:12:53;;;;;;;11.63;6.30;;;;;;;12.54;100.00;101995.50;5020842;28;20669;-87
2022/10/27 05:15:19;;;;;;;13.27;6.60;;;;;;;12.50;100.00;101998.63;5020905;28;20042;-87
2022/10/27 05:17:44;;;;;;;10.37;6.57;;;;;;;12.49;100.00;101988.78;5021263;28;20189;-87
2022/10/27 05:20:10;;;;;;;10.37;6.70;;;;;;;12.48;100.00;101991.69;5020020;28;21294;-86
2022/10/27 05:22:36;;;;;;;11.93;5.60;;;;;;;12.47;100.00;101987.28;5020108;28;20650;-86
2022/10/27 05:25:02;;;;;;;13.40;6.20;;;;;;;12.40;100.00;101980.97;5020645;28;20111;-86
2022/10/27 05:27:27;;;;;;;10.17;6.20;;;;;;;12.44;100.00;101983.13;5036826;28;20120;-87
2022/10/27 05:29:52;;;;;;;11.57;6.23;;;;;;;12.44;100.00;101991.28;5021410;28;20042;-86
2022/10/27 05:32:18;;;;;;;12.37;5.90;;;;;;;12.45;100.00;101992.94;5021347;28;20029;-87
2022/10/27 05:34:43;;;;;;;9.17;6.00;;;;;;;12.45;100.00;101992.09;5021167;28;20477;-88
2022/10/27 05:37:09;;;;;;;11.30;6.40;;;;;;;12.42;100.00;101987.91;5019595;28;20156;-88
2022/10/27 05:39:53;;;;;;;10.67;6.43;;;;;;;12.46;100.00;101983.75;4996215;28;20103;-87
2022/10/27 05:42:18;;;;;;;9.27;6.10;;;;;;;12.46;100.00;101988.34;5020263;28;20041;-88
2022/10/27 05:44:44;;;;;;;11.50;6.47;;;;;;;12.46;100.00;101988.34;5020198;28;20754;-89
2022/10/27 05:47:09;;;;;;;12.23;6.67;;;;;;;12.42;100.00;101978.91;5002993;28;20121;-88
2022/10/27 05:49:34;;;;;;;10.70;6.47;;;;;;;12.47;100.00;101981.84;5036074;28;20120;-87
2022/10/27 05:52:00;;;;;;;12.50;6.47;;;;;;;12.46;100.00;101977.47;5036409;28;20477;-86
2022/10/27 05:54:25;;;;;;;10.83;5.97;;;;;;;12.45;100.00;101982.06;5020032;28;20489;-88
2022/10/27 05:56:50;;;;;;;12.03;6.30;;;;;;;12.48;100.00;101980.81;5021231;28;20500;-88
2022/10/27 05:59:16;;;;;;;13.53;6.03;;;;;;;12.47;100.00;101984.56;5021181;28;20037;-87
2022/10/27 06:01:42;;;;;;;11.30;6.20;;;;;;;12.48;100.00;101987.13;5034473;28;20032;-88
2022/10/27 06:04:07;;;;;;;9.83;6.00;;;;;;;12.40;100.00;101968.25;5020410;28;20049;-89
2022/10/27 06:06:33;;;;;;;12.23;5.73;;;;;;;12.50;100.00;101981.47;5021398;28;20737;-89
2022/10/27 06:08:58;;;;;;;11.30;6.20;;;;;;;12.46;100.00;101983.75;5019719;28;20176;-88
2022/10/27 06:11:25;;;;;;;10.30;6.33;;;;;;;12.44;100.00;101974.97;5020318;28;20505;-88
2022/10/27 06:13:51;;;;;;;11.60;6.03;;;;;;;12.46;100.00;101977.47;5020235;28;20658;-87
2022/10/27 06:16:19;;;;;;;9.27;5.90;;;;;;;12.44;100.00;101982.25;5001347;28;20682;-87
2022/10/27 06:18:44;;;;;;;11.57;6.23;;;;;;;12.43;100.00;101969.69;5016906;28;21789;-86
2022/10/27 06:21:10;;;;;;;11.40;6.13;;;;;;;12.46;100.00;101978.31;5035535;28;20045;-88
2022/10/27 06:23:36;;;;;;;12.33;6.20;;;;;;;12.47;100.00;101968.25;5019865;28;20103;-88
2022/10/27 06:26:02;;;;;;;11.30;5.90;;;;;;;12.45;100.00;101971.19;5019939;28;20045;-88
2022/10/27 06:28:27;;;;;;;8.60;5.50;;;;;;;12.45;100.00;101970.34;5017230;28;20048;-87
2022/10/27 06:30:53;;;;;;;10.70;5.90;;;;;;;12.46;100.00;101966.59;5019596;28;20034;-87
2022/10/27 06:33:19;;;;;;;11.00;6.13;;;;;;;12.44;100.00;101964.09;5019889;28;20038;-87
2022/10/27 06:35:46;;;;;;;8.83;5.67;;;;;;;12.48;100.00;101968.09;5000464;28;20048;-87
2022/10/27 06:38:15;;;;;;;8.80;5.60;;;;;;;12.50;100.00;101970.59;5018316;28;20033;-88
2022/10/27 06:40:41;;;;;;;9.10;5.47;;;;;;;12.49;100.00;101967.03;5019838;28;20055;-88
2022/10/27 06:43:07;;;;;;;10.23;5.70;;;;;;;12.50;100.00;101963.28;5019426;28;20404;-88
2022/10/27 06:45:32;;;;;;;11.30;5.43;;;;;;;12.52;100.00;101963.09;5035522;28;20033;-87
2022/10/27 06:48:00;;;;;;;10.23;5.30;;;;;;;12.51;100.00;101955.97;5018785;28;20037;-87
2022/10/27 06:50:26;;;;;;;8.77;5.50;;;;;;;12.55;100.00;101959.13;5018443;28;20030;-88
2022/10/27 06:52:51;;;;;;;10.63;5.30;;;;;;;12.50;100.00;101957.03;5034885;28;20048;-88
2022/10/27 06:55:17;;;;;;;8.60;5.60;;;;;;;12.55;100.00;101965.44;5019508;28;20030;-89
2022/10/27 06:57:42;;;;;;;8.40;5.13;;;;;;;12.54;100.00;101963.75;5010290;28;20897;-88
2022/10/27 07:00:10;;;;;;;8.70;4.80;;;;;;;12.54;100.00;101960.16;5009026;28;20111;-86
2022/10/27 07:02:35;;;;;;;11.47;5.13;;;;;;;12.54;100.00;101955.59;5007747;28;20139;-87
2022/10/27 07:05:01;;;;;;;10.33;5.43;;;;;;;12.54;100.00;101950.16;5005159;28;20037;-85
2022/10/27 07:07:27;;;;;;;8.33;4.90;;;;;;;12.58;100.00;101946.00;5009580;28;20044;-86
2022/10/27 07:09:52;;;;;;;9.23;5.00;;;;;;;12.67;100.00;101946.66;5007275;28;20432;-88
2022/10/27 07:12:17;;;;;;;11.23;5.20;;;;;;;12.74;100.00;101941.28;5010491;28;20076;-85
2022/10/27 07:14:43;;;;;;;8.63;4.97;;;;;;;12.79;100.00;101944.25;5007679;28;20053;-87
2022/10/27 07:17:08;;;;;;;8.73;4.70;;;;;;;12.86;100.00;101952.44;4994154;28;20057;-86
2022/10/27 07:19:35;;;;;;;9.07;4.77;;;;;;;12.94;100.00;101955.00;4986746;28;20046;-87
2022/10/27 07:22:00;;;;;;;11.13;5.00;;;;;;;13.01;100.00;101953.16;5008025;28;20129;-86
2022/10/27 07:24:25;;;;;;;8.10;4.80;;;;;;;13.07;100.00;101962.38;5008487;28;21331;-88
2022/10/27 07:26:51;;;;;;;10.90;4.87;;;;;;;13.08;100.00;101956.78;5023357;28;20124;-88
2022/10/27 07:29:16;;;;;;;10.60;5.23;;;;;;;13.17;100.00;101954.72;5008586;28;20116;-89
2022/10/27 07:31:46;;;;;;;7.97;5.00;;;;;;;13.21;100.00;101955.97;5007691;28;20494;-88
2022/10/27 07:34:12;;;;;;;10.67;5.30;;;;;;;13.33;100.00;101959.81;5009308;28;20041;-86
2022/10/27 07:36:37;;;;;;;10.03;4.90;;;;;;;13.44;100.00;101952.13;5008937;28;20042;-91
2022/10/27 07:39:03;;;;;;;7.73;4.77;;;;;;;13.56;100.00;101953.22;5007202;28;20072;-86
2022/10/27 07:41:28;;;;;;;11.23;5.23;;;;;;;13.70;100.00;101950.53;4992556;28;20041;-89
2022/10/27 07:43:54;;;;;;;10.23;5.03;;;;;;;13.90;100.00;101948.69;5008164;28;20393;-87
2022/10/27 07:46:19;;;;;;;9.03;4.70;;;;;;;14.04;100.00;101951.44;4992948;28;20162;-85
2022/10/27 07:48:44;;;;;;;7.17;4.23;;;;;;;14.30;100.00;101951.44;5008751;28;20117;-89
2022/10/27 07:51:09;;;;;;;9.00;4.60;;;;;;;14.48;98.59;101949.97;5025623;28;20127;-89
2022/10/27 07:53:35;;;;;;;9.93;4.13;;;;;;;14.71;96.77;101955.00;5008763;28;20045;-89
2022/10/27 07:56:01;;;;;;;8.13;3.87;;;;;;;14.95;94.22;101958.13;5006513;28;20047;-88
2022/10/27 07:58:27;;;;;;;8.53;4.03;;;;;;;15.18;92.58;101958.47;5008048;28;20046;-88
2022/10/27 08:00:52;;;;;;;7.93;3.97;;;;;;;15.40;91.67;101958.16;5007630;28;20494;-86
2022/10/27 08:03:24;;;;;;;9.03;4.20;;;;;;;15.53;90.32;101962.75;5009175;28;20094;-89
2022/10/27 08:05:50;;;;;;;8.90;3.83;;;;;;;15.69;90.17;101959.50;4990388;28;20132;-86
2022/10/27 08:08:15;;;;;;;6.10;3.63;;;;;;;15.73;88.90;101962.63;5008527;28;20525;-88
2022/10/27 08:10:42;;;;;;;7.53;3.80;;;;;;;15.78;88.49;101956.50;5008671;28;20044;-87
2022/10/27 08:13:08;;;;;;;9.30;3.90;;;;;;;15.78;87.60;101967.44;5006168;28;20051;-89
2022/10/27 08:15:35;;;;;;;8.70;3.70;;;;;;;15.78;87.96;101961.97;5008471;28;20033;-87
2022/10/27 08:18:01;;;;;;;9.00;4.20;;;;;;;15.74;87.13;101961.56;5008002;28;20432;-87
2022/10/27 08:20:30;;;;;;;10.30;3.70;;;;;;;15.72;87.36;101966.44;5008012;28;20033;-88
2022/10/27 08:23:03;;;;;;;7.37;3.93;;;;;;;15.68;86.50;101962.47;5008091;28;20042;-89
2022/10/27 08:25:29;;;;;;;10.27;4.10;;;;;;;15.65;86.68;101963.72;5006663;28;20123;-87
2022/10/27 08:27:55;;;;;;;6.60;3.60;;;;;;;15.64;86.55;101953.84;5010332;28;20087;-87
2022/10/27 08:30:21;;;;;;;8.80;3.57;;;;;;;15.61;86.64;101945.25;5008106;28;20095;-86
2022/10/27 08:32:48;;;;;;;8.03;3.70;;;;;;;15.60;87.02;101944.41;5008549;28;20385;-86
2022/10/27 08:35:14;;;;;;;8.67;3.60;;;;;;;15.61;87.31;101937.03;5010944;28;20033;-86
2022/10/27 08:37:40;;;;;;;10.00;3.67;;;;;;;15.69;87.13;101934.91;5022413;28;20044;-89
2022/10/27 08:40:06;;;;;;;8.47;3.83;;;;;;;15.89;86.37;101931.22;5021761;28;20180;-88
2022/10/27 08:42:48;;;;;;;6.43;3.50;;;;;;;16.19;85.68;101939.63;5022564;28;20047;-90
2022/10/27 08:45:19;;;;;;;10.57;4.03;;;;;;;16.52;84.30;101940.38;5000504;28;20045;-88
2022/10/27 08:47:46;;;;;;;6.20;3.70;;;;;;;16.79;82.43;101942.88;5020524;28;20049;-85
2022/10/27 08:50:17;;;;;;;9.47;3.70;;;;;;;17.02;80.98;101931.28;5018405;28;20190;-86
2022/10/27 08:53:07;;;;;;;9.20;3.80;;;;;;;17.27;79.35;101936.66;4995267;28;20037;-88
2022/10/27 08:56:09;;;;;;;10.07;3.20;;;;;;;17.45;79.49;101933.06;5033666;28;20061;-88
2022/10/27 08:58:42;;;;;;;6.97;3.10;;;;;;;17.55;77.00;101936.06;5018430;28;20910;-84
2022/10/27 09:01:16;;;;;;;6.47;2.97;;;;;;;17.74;76.80;101929.72;5018990;28;20052;-90
2022/10/27 09:03:53;;;;;;;5.40;2.80;;;;;;;17.81;76.09;101927.69;5034529;28;20052;-87
2022/10/27 09:06:25;;;;;;;7.72;3.17;;;;;;;17.80;75.47;101926.03;5019327;28;20494;-86
2022/10/27 09:08:53;;;;;;;4.97;2.70;;;;;;;17.89;74.38;101921.88;5019246;28;20852;-86
2022/10/27 09:11:49;;;;;;;4.65;2.80;;;;;;;18.01;74.52;101911.78;5033671;28;20045;-91
2022/10/27 09:14:33;;;;;;;6.55;2.85;;;;;;;18.04;72.79;101905.00;5019751;28;20037;-86
2022/10/27 09:17:08;;;;;;;5.40;2.78;;;;;;;18.13;73.17;101903.59;5019264;28;20064;-89
2022/10/27 09:19:50;;;;;;;6.68;2.78;;;;;;;18.08;72.47;101897.97;5018604;28;20095;-87
2022/10/27 09:22:18;;;;;;;7.95;2.92;;;;;;;18.19;71.74;101899.88;5019013;28;20033;-87
2022/10/27 09:24:53;;;;;;;5.03;2.38;;;;;;;18.21;70.88;101895.00;5019561;28;20559;-90
2022/10/27 09:27:19;;;;;;;7.05;2.60;;;;;;;18.42;70.90;101897.41;5018058;28;20560;-89
2022/10/27 09:29:47;;;;;;;3.35;2.08;;;;;;;18.45;69.80;101895.00;5001268;28;20977;-83
2022/10/27 09:32:21;;;;;;;4.45;2.30;;;;;;;18.49;70.53;101901.69;5018517;28;20025;-89
2022/10/27 09:35:06;;;;;;;6.80;2.40;;;;;;;18.57;69.63;101908.72;5018672;28;20045;-84
2022/10/27 09:37:39;;;;;;;3.53;2.00;;;;;;;18.58;68.87;101902.16;5019336;28;21536;-88
2022/10/27 09:40:10;;;;;;;4.43;2.35;;;;;;;18.56;69.63;101888.69;5017776;28;20029;-86
2022/10/27 09:42:36;;;;;;;5.40;2.17;;;;;;;18.59;68.36;101886.53;5002111;28;20408;-91
2022/10/27 09:45:11;;;;;;;4.18;2.15;;;;;;;18.51;68.54;101883.09;5020947;28;20322;-89
2022/10/27 09:47:38;;;;;;;5.13;2.38;;;;;;;18.55;68.25;101886.19;5020246;28;20044;-84
2022/10/27 09:50:05;;;;;;;4.47;1.95;;;;;;;18.46;69.19;101880.22;5019825;28;20505;-83
2022/10/27 09:52:36;;;;;;;5.47;2.47;;;;;;;18.55;68.77;101875.22;5035724;28;20103;-84
2022/10/27 09:55:01;;;;;;;4.43;2.17;;;;;;;18.67;68.85;101867.78;5019673;28;20057;-86
2022/10/27 09:57:32;;;;;;;3.55;2.00;;;;;;;18.80;69.00;101863.94;5035742;28;20033;-86
2022/10/27 10:00:04;;;;;;;4.40;2.28;;;;;;;19.10;68.89;101876.66;5021385;28;20571;-86
2022/10/27 10:02:32;;;;;;;5.43;2.03;;;;;;;19.31;67.46;101882.53;5019653;28;20033;-85
2022/10/27 10:05:04;;;;;;;5.07;1.92;;;;;;;19.49;66.98;101878.78;5019481;28;20125;-85
2022/10/27 10:07:32;;;;;;;6.60;2.10;;;;;;;19.65;65.20;101872.47;5020131;28;20048;-86
2022/10/27 10:10:06;;;;;;;6.00;2.53;;;;;;;19.72;65.98;101889.63;5020100;28;20064;-87
2022/10/27 10:12:31;;;;;;;4.97;2.45;;;;;;;19.90;65.69;101880.34;5020693;28;20208;-87
2022/10/27 10:15:09;;;;;;;5.10;2.10;;;;;;;19.95;64.56;101876.88;5020673;28;20037;-87
2022/10/27 10:17:34;;;;;;;4.47;2.30;;;;;;;19.93;63.88;101868.00;5019961;28;20053;-86
2022/10/27 10:20:00;;;;;;;5.13;2.00;;;;;;;19.98;64.42;101856.28;5001486;28;20045;-85
2022/10/27 10:22:29;;;;;;;3.78;2.00;;;;;;;20.02;63.72;101857.44;5001781;28;20064;-84
2022/10/27 10:24:57;;;;;;;3.50;1.65;;;;;;;19.98;62.78;101857.09;5020430;28;20037;-85
2022/10/27 10:27:29;;;;;;;3.03;1.80;;;;;;;19.95;64.18;101859.50;5019914;28;20038;-85
2022/10/27 10:29:58;;;;;;;6.97;1.92;;;;;;;19.95;64.73;101843.00;5020410;28;20030;-87
2022/10/27 10:32:30;;;;;;;4.10;2.15;;;;;;;19.82;65.27;101849.69;5019545;28;20041;-87
2022/10/27 10:34:59;;;;;;;5.57;1.80;;;;;;;19.84;65.99;101844.75;5020400;28;20190;-86
2022/10/27 10:37:32;;;;;;;5.22;1.95;;;;;;;19.81;65.02;101842.50;5002427;28;20048;-88
2022/10/27 10:40:25;;;;;;;4.40;1.80;;;;;;;19.84;65.72;101842.00;5019325;28;20104;-88
2022/10/27 10:43:00;;;;;;;4.50;1.77;;;;;;;19.84;66.60;101853.84;5020137;28;20037;-85
2022/10/27 10:45:28;;;;;;;5.05;2.00;;;;;;;19.87;65.64;101847.03;5019377;28;20033;-86
2022/10/27 10:47:59;;;;;;;5.82;1.98;;;;;;;19.74;65.11;101848.97;5019542;28;20481;-86
2022/10/27 10:50:27;;;;;;;4.57;1.80;;;;;;;19.68;65.79;101838.16;5020363;28;20060;-87
2022/10/27 10:52:55;;;;;;;7.00;2.28;;;;;;;19.70;65.76;101831.31;5019809;28;20511;-87
2022/10/27 10:55:29;;;;;;;4.82;1.80;;;;;;;19.64;66.79;101828.75;5035177;28;20041;-88
2022/10/27 10:57:56;;;;;;;4.95;1.85;;;;;;;19.70;65.89;101828.56;5000494;28;20453;-86
2022/10/27 11:00:22;;;;;;;3.22;1.75;;;;;;;19.82;66.25;101830.44;5018811;28;20103;-86
2022/10/27 11:03:00;;;;;;;4.47;1.90;;;;;;;19.92;67.14;101827.84;5035017;28;20029;-87
2022/10/27 11:05:34;;;;;;;4.53;1.85;;;;;;;19.90;66.43;101819.03;5020283;28;20116;-87
2022/10/27 11:08:28;;;;;;;7.88;1.90;;;;;;;19.93;67.09;101824.00;5000506;28;20870;-86
2022/10/27 11:10:55;;;;;;;5.57;1.83;;;;;;;19.85;66.75;101818.94;5018571;28;20128;-87
2022/10/27 11:13:26;;;;;;;5.22;2.00;;;;;;;19.89;65.38;101822.84;5019916;28;20037;-85
2022/10/27 11:15:59;;;;;;;4.13;2.05;;;;;;;19.78;65.83;101815.50;5010846;28;20037;-87
2022/10/27 11:18:46;;;;;;;5.63;2.00;;;;;;;19.78;66.47;101821.00;5017602;28;20183;-83
2022/10/27 11:21:30;;;;;;;5.28;2.08;;;;;;;19.74;66.56;101818.72;5017841;28;20050;-87
2022/10/27 11:24:00;;;;;;;5.70;2.00;;;;;;;19.68;66.67;101827.16;5019786;28;20091;-87
2022/10/27 11:26:59;;;;;;;7.43;2.08;;;;;;;19.74;67.43;101826.97;5018754;28;20065;-86